Time;durP1;ratioP1;P1;durP2;ratioP2;P2;SDS_P1;SDS_P2;PMS_P1;PMS_P2;Temp;Humidity;BMP_temperature;BMP_pressure;BME280_temperature;BME280_humidity;BME280_pressure;Samples;Min_cycle;Max_cycle;Signal;HPM_P1;HPM_P2
2024/03/23 00:01:40;;;;;;;134.27;121.70;;;;;;;;;;4936570;29;20060;-92
2024/03/23 00:04:07;;;;;;;102.85;92.30;;;;;;;;;;4936670;29;20397;-93
2024/03/23 00:06:34;;;;;;;103.38;93.15;;;;;;;;;;4883848;29;20521;-92
2024/03/23 00:09:00;;;;;;;102.55;92.82;;;;;;;;;;4915075;29;20025;-91
2024/03/23 00:11:27;;;;;;;84.75;75.63;;;;;;;;;;4898494;29;20036;-92
2024/03/23 00:13:54;;;;;;;122.82;111.75;;;;;;;;;;4898782;29;20037;-93
2024/03/23 00:16:21;;;;;;;118.68;107.85;;;;;;;;;;4919017;29;20063;-91
2024/03/23 00:18:48;;;;;;;90.68;80.90;;;;;;;;;;4959022;28;20036;-92
2024/03/23 00:21:15;;;;;;;87.32;77.32;;;;;;;;;;4967472;28;20123;-90
2024/03/23 00:23:45;;;;;;;88.10;79.05;;;;;;;;;;4952994;29;20035;-93
2024/03/23 00:26:12;;;;;;;52.08;45.72;;;;;;;;;;4936064;29;20047;-91
2024/03/23 00:28:38;;;;;;;52.20;46.63;;;;;;;;;;4952614;29;20024;-92
2024/03/23 00:31:05;;;;;;;49.13;40.10;;;;;;;;;;4936168;28;20058;-92
2024/03/23 00:33:31;;;;;;;54.00;40.13;;;;;;;;;;4936982;29;20047;-92
2024/03/23 00:35:58;;;;;;;47.85;34.70;;;;;;;;;;4936577;29;20560;-93
2024/03/23 00:38:24;;;;;;;43.30;36.03;;;;;;;;;;4922168;29;20494;-93
2024/03/23 00:40:51;;;;;;;41.20;28.70;;;;;;;;;;4936477;29;20047;-94
2024/03/23 00:43:18;;;;;;;48.35;40.85;;;;;;;;;;4951897;29;20031;-93
2024/03/23 00:45:47;;;;;;;44.40;35.30;;;;;;;;;;4935731;29;20047;-93
2024/03/23 00:48:14;;;;;;;48.72;43.13;;;;;;;;;;4952217;29;20059;-93
2024/03/23 00:50:40;;;;;;;43.85;36.25;;;;;;;;;;4936009;29;20040;-93
2024/03/23 00:53:07;;;;;;;57.28;51.97;;;;;;;;;;4952268;29;20028;-93
2024/03/23 00:55:33;;;;;;;46.10;41.40;;;;;;;;;;4935796;29;20047;-92
2024/03/23 00:57:59;;;;;;;57.13;51.80;;;;;;;;;;4951903;29;20031;-91
2024/03/23 01:00:25;;;;;;;42.33;36.85;;;;;;;;;;4951809;29;20498;-92
2024/03/23 01:02:51;;;;;;;66.07;60.33;;;;;;;;;;4953256;28;20031;-91
2024/03/23 01:05:17;;;;;;;41.92;35.45;;;;;;;;;;4952121;29;20039;-92
2024/03/23 01:07:44;;;;;;;42.50;37.95;;;;;;;;;;4951618;29;20039;-91
2024/03/23 01:10:13;;;;;;;38.72;30.08;;;;;;;;;;4920390;29;20024;-92
2024/03/23 01:12:39;;;;;;;50.28;43.33;;;;;;;;;;4913775;29;20482;-93
2024/03/23 01:15:06;;;;;;;65.63;59.40;;;;;;;;;;4913889;29;20021;-92
2024/03/23 01:17:32;;;;;;;72.05;65.88;;;;;;;;;;4898169;29;20477;-92
2024/03/23 01:19:58;;;;;;;46.40;41.67;;;;;;;;;;4913833;29;20032;-90
2024/03/23 01:22:25;;;;;;;49.17;43.85;;;;;;;;;;4914728;29;20044;-91
2024/03/23 01:24:52;;;;;;;41.22;33.50;;;;;;;;;;4952956;28;20047;-92
2024/03/23 01:27:25;;;;;;;61.05;55.30;;;;;;;;;;4940469;29;20036;-92
2024/03/23 01:30:15;;;;;;;68.38;62.60;;;;;;;;;;4956219;28;20114;-93
2024/03/23 01:32:51;;;;;;;41.55;37.85;;;;;;;;;;4957537;29;20047;-93
2024/03/23 01:35:17;;;;;;;58.75;53.80;;;;;;;;;;4942992;29;20039;-92
2024/03/23 01:37:43;;;;;;;83.65;77.57;;;;;;;;;;4942728;29;20019;-93
2024/03/23 01:40:10;;;;;;;76.05;70.18;;;;;;;;;;4942646;29;20031;-92
2024/03/23 01:42:38;;;;;;;78.07;71.82;;;;;;;;;;4942513;29;20035;-92
2024/03/23 01:45:11;;;;;;;83.93;78.05;;;;;;;;;;4942387;29;20555;-92
2024/03/23 01:50:41;;;;;;;124.32;116.57;;;;;;;;;;4921445;29;20070;-91
2024/03/23 01:53:10;;;;;;;139.07;130.25;;;;;;;;;;4936318;29;20034;-92
2024/03/23 01:58:43;;;;;;;130.27;122.07;;;;;;;;;;4959618;29;20105;-93
2024/03/23 02:01:15;;;;;;;155.65;146.52;;;;;;;;;;4959114;28;20031;-92
2024/03/23 02:03:44;;;;;;;109.53;102.28;;;;;;;;;;4959978;28;20062;-93
2024/03/23 02:06:13;;;;;;;110.95;103.60;;;;;;;;;;4942273;29;20023;-91
2024/03/23 02:08:39;;;;;;;112.40;104.85;;;;;;;;;;4942150;29;20046;-92
2024/03/23 02:11:05;;;;;;;124.20;115.95;;;;;;;;;;4946840;29;20026;-91
2024/03/23 02:13:32;;;;;;;143.50;134.68;;;;;;;;;;4954793;29;20043;-91
2024/03/23 02:15:58;;;;;;;98.68;91.82;;;;;;;;;;4943635;29;20035;-91
2024/03/23 02:18:24;;;;;;;105.50;96.97;;;;;;;;;;4941697;29;20051;-91
2024/03/23 02:20:51;;;;;;;95.50;87.97;;;;;;;;;;4958764;29;20082;-93
2024/03/23 02:23:17;;;;;;;110.72;102.47;;;;;;;;;;4941635;29;20062;-92
2024/03/23 02:25:47;;;;;;;70.90;65.05;;;;;;;;;;4941800;29;20031;-91
2024/03/23 02:28:15;;;;;;;116.75;108.28;;;;;;;;;;4942261;29;20050;-92
2024/03/23 02:30:41;;;;;;;95.78;88.93;;;;;;;;;;4939791;29;20130;-92
2024/03/23 02:38:13;;;;;;;102.43;95.22;;;;;;;;;;4919510;29;20075;-90
2024/03/23 02:40:39;;;;;;;96.15;89.28;;;;;;;;;;4934297;29;20153;-92
2024/03/23 02:43:05;;;;;;;109.72;102.20;;;;;;;;;;4935557;29;20179;-90
2024/03/23 02:45:31;;;;;;;99.88;92.68;;;;;;;;;;4935237;29;20020;-89
2024/03/23 02:47:58;;;;;;;129.38;120.38;;;;;;;;;;4934822;29;20504;-90
2024/03/23 02:50:24;;;;;;;137.48;128.65;;;;;;;;;;4935130;29;20056;-91
2024/03/23 02:52:50;;;;;;;120.60;112.50;;;;;;;;;;4935232;29;20032;-89
2024/03/23 02:55:16;;;;;;;140.20;130.95;;;;;;;;;;4934756;29;20084;-92
2024/03/23 02:57:51;;;;;;;152.73;142.77;;;;;;;;;;4948256;29;20399;-90
2024/03/23 03:00:18;;;;;;;129.15;120.22;;;;;;;;;;4953936;29;20115;-91
2024/03/23 03:02:44;;;;;;;149.27;139.52;;;;;;;;;;4921957;29;20031;-89
2024/03/23 03:05:11;;;;;;;139.85;130.30;;;;;;;;;;4954135;29;20123;-91
2024/03/23 03:07:39;;;;;;;113.60;105.13;;;;;;;;;;4954423;29;20400;-89
2024/03/23 03:10:06;;;;;;;78.03;71.38;;;;;;;;;;4922228;29;20035;-90
2024/03/23 03:12:32;;;;;;;116.20;107.78;;;;;;;;;;4953796;29;20038;-92
2024/03/23 03:14:58;;;;;;;149.13;139.27;;;;;;;;;;4954346;29;20035;-92
2024/03/23 03:17:24;;;;;;;106.53;97.85;;;;;;;;;;4959954;29;20465;-90
2024/03/23 03:19:55;;;;;;;95.60;88.13;;;;;;;;;;4959279;29;20068;-89
2024/03/23 03:22:21;;;;;;;71.88;65.43;;;;;;;;;;4953589;29;20038;-91
2024/03/23 03:24:47;;;;;;;93.40;85.55;;;;;;;;;;4953367;29;20062;-91
2024/03/23 03:27:14;;;;;;;64.82;58.80;;;;;;;;;;4953325;29;20058;-91
2024/03/23 03:29:41;;;;;;;66.28;60.25;;;;;;;;;;4953124;29;20552;-91
2024/03/23 03:32:07;;;;;;;47.70;41.95;;;;;;;;;;4921038;29;20130;-89
2024/03/23 03:34:33;;;;;;;40.78;30.05;;;;;;;;;;4953291;29;20039;-91
2024/03/23 03:37:00;;;;;;;45.42;37.15;;;;;;;;;;4952780;28;20082;-93
2024/03/23 03:39:26;;;;;;;47.40;38.97;;;;;;;;;;4921288;29;20032;-93
2024/03/23 03:41:53;;;;;;;40.58;32.85;;;;;;;;;;4923085;29;20119;-93
2024/03/23 03:44:19;;;;;;;39.85;28.17;;;;;;;;;;4971493;28;20016;-93
2024/03/23 03:46:45;;;;;;;36.67;28.42;;;;;;;;;;4973010;28;20032;-93
2024/03/23 03:49:11;;;;;;;44.08;30.88;;;;;;;;;;4954753;29;20075;-93
2024/03/23 03:51:40;;;;;;;37.45;28.98;;;;;;;;;;4952888;29;20063;-92
2024/03/23 03:54:07;;;;;;;38.03;27.10;;;;;;;;;;4952909;29;20126;-91
2024/03/23 03:56:33;;;;;;;36.50;26.25;;;;;;;;;;4953577;29;20068;-91
2024/03/23 03:59:00;;;;;;;38.90;28.55;;;;;;;;;;4952825;29;20087;-90
2024/03/23 04:01:26;;;;;;;41.65;35.58;;;;;;;;;;4952877;29;20090;-89
2024/03/23 04:03:53;;;;;;;37.35;31.48;;;;;;;;;;4953156;29;20024;-93
2024/03/23 04:06:19;;;;;;;36.20;24.80;;;;;;;;;;4953099;29;20032;-92
2024/03/23 04:08:45;;;;;;;37.10;26.58;;;;;;;;;;4952598;29;20028;-91
2024/03/23 04:11:11;;;;;;;38.28;25.60;;;;;;;;;;4952478;29;20027;-90
2024/03/23 04:13:38;;;;;;;40.38;27.25;;;;;;;;;;4952772;29;20027;-91
2024/03/23 04:16:04;;;;;;;45.28;37.10;;;;;;;;;;4952670;29;20047;-91
2024/03/23 04:18:30;;;;;;;43.38;33.53;;;;;;;;;;4952320;29;20042;-92
2024/03/23 04:20:56;;;;;;;41.50;28.25;;;;;;;;;;4952253;29;20090;-91
2024/03/23 04:23:29;;;;;;;38.92;33.78;;;;;;;;;;4952700;29;20116;-89
2024/03/23 04:25:55;;;;;;;39.28;33.45;;;;;;;;;;4953057;29;20032;-91
2024/03/23 04:28:22;;;;;;;38.35;27.55;;;;;;;;;;4952641;29;20556;-91
2024/03/23 04:30:50;;;;;;;38.50;26.98;;;;;;;;;;4956307;29;20039;-90
2024/03/23 04:33:17;;;;;;;39.45;28.65;;;;;;;;;;4943383;29;20036;-93
2024/03/23 04:35:56;;;;;;;37.30;26.77;;;;;;;;;;4964934;28;20091;-93
2024/03/23 04:38:23;;;;;;;36.40;25.48;;;;;;;;;;4954494;29;20048;-91
2024/03/23 04:40:56;;;;;;;33.47;24.83;;;;;;;;;;4952263;29;20481;-91
2024/03/23 04:43:22;;;;;;;33.85;23.83;;;;;;;;;;4920236;29;20122;-91
2024/03/23 04:45:48;;;;;;;31.58;23.05;;;;;;;;;;4952330;29;20035;-92
2024/03/23 04:48:14;;;;;;;31.95;23.70;;;;;;;;;;4952271;29;20373;-91
2024/03/23 04:50:41;;;;;;;31.30;21.77;;;;;;;;;;4951974;29;20038;-93
2024/03/23 04:53:07;;;;;;;34.47;24.00;;;;;;;;;;4952471;29;20051;-91
2024/03/23 04:55:37;;;;;;;36.97;24.23;;;;;;;;;;4920943;29;20122;-90
2024/03/23 04:58:03;;;;;;;34.65;28.50;;;;;;;;;;4951829;29;20039;-93
2024/03/23 05:00:29;;;;;;;36.42;26.42;;;;;;;;;;4956514;29;20039;-91
2024/03/23 05:02:57;;;;;;;33.47;23.15;;;;;;;;;;4962105;28;20059;-91
2024/03/23 05:05:23;;;;;;;35.00;25.85;;;;;;;;;;4952036;29;20035;-94
2024/03/23 05:07:50;;;;;;;35.80;26.70;;;;;;;;;;4919873;29;20175;-92
2024/03/23 05:10:18;;;;;;;38.95;29.00;;;;;;;;;;4950429;29;20035;-91
2024/03/23 05:12:45;;;;;;;36.47;25.10;;;;;;;;;;4940927;29;20039;-90
2024/03/23 05:15:14;;;;;;;36.85;25.95;;;;;;;;;;4966738;29;20118;-96
2024/03/23 05:17:40;;;;;;;35.60;24.02;;;;;;;;;;4944172;28;20433;-90
2024/03/23 05:20:09;;;;;;;38.67;25.08;;;;;;;;;;4951862;29;20028;-91
2024/03/23 05:22:39;;;;;;;33.50;22.48;;;;;;;;;;4920498;29;20524;-91
2024/03/23 05:25:05;;;;;;;37.33;25.17;;;;;;;;;;4920175;29;20110;-91
2024/03/23 05:27:32;;;;;;;36.30;23.80;;;;;;;;;;4967838;28;20011;-91
2024/03/23 05:30:00;;;;;;;35.10;23.20;;;;;;;;;;4966392;28;20035;-91
2024/03/23 05:32:26;;;;;;;34.22;22.98;;;;;;;;;;4956535;29;20036;-91
2024/03/23 05:34:56;;;;;;;29.80;22.08;;;;;;;;;;4944829;29;20060;-90
2024/03/23 05:37:23;;;;;;;32.00;22.45;;;;;;;;;;4901178;29;20060;-91
2024/03/23 05:39:52;;;;;;;33.70;22.63;;;;;;;;;;4901542;29;20032;-90
2024/03/23 05:42:18;;;;;;;36.40;23.08;;;;;;;;;;4901759;29;20036;-91
2024/03/23 05:45:06;;;;;;;34.42;21.75;;;;;;;;;;4901821;29;20398;-91
2024/03/23 05:47:32;;;;;;;33.28;22.13;;;;;;;;;;4943508;29;20031;-91
2024/03/23 05:49:59;;;;;;;34.13;23.38;;;;;;;;;;4950784;29;20030;-90
2024/03/23 05:52:25;;;;;;;32.35;27.23;;;;;;;;;;4943651;29;20028;-91
2024/03/23 05:54:51;;;;;;;31.50;21.80;;;;;;;;;;4901100;29;20036;-91
2024/03/23 05:57:18;;;;;;;34.00;24.50;;;;;;;;;;4913932;29;20031;-89
2024/03/23 05:59:44;;;;;;;35.67;28.83;;;;;;;;;;4951958;29;20111;-90
2024/03/23 06:02:11;;;;;;;34.03;24.35;;;;;;;;;;4951471;29;20040;-90
2024/03/23 06:04:37;;;;;;;34.45;29.05;;;;;;;;;;4921487;29;20020;-91
2024/03/23 06:07:06;;;;;;;34.33;27.10;;;;;;;;;;4902326;29;20032;-90
2024/03/23 06:09:32;;;;;;;32.30;25.63;;;;;;;;;;4914668;29;20032;-90
2024/03/23 06:11:58;;;;;;;33.08;27.83;;;;;;;;;;4951635;29;20131;-91
2024/03/23 06:14:24;;;;;;;34.95;28.05;;;;;;;;;;4951687;29;20032;-90
2024/03/23 06:16:50;;;;;;;33.28;29.58;;;;;;;;;;4953338;28;20027;-90
2024/03/23 06:19:16;;;;;;;36.17;30.13;;;;;;;;;;4954913;29;20031;-91
2024/03/23 06:21:48;;;;;;;34.83;27.42;;;;;;;;;;4955945;29;20039;-91
2024/03/23 06:27:18;;;;;;;40.33;28.00;;;;;;;;;;4940480;29;20043;-90
2024/03/23 06:29:44;;;;;;;36.08;28.73;;;;;;;;;;4905476;29;20393;-88
2024/03/23 06:32:10;;;;;;;34.47;26.90;;;;;;;;;;4904245;29;20032;-91
2024/03/23 06:35:07;;;;;;;37.45;26.52;;;;;;;;;;4904619;29;20032;-89
2024/03/23 06:37:40;;;;;;;35.65;26.67;;;;;;;;;;4904358;29;20044;-90
2024/03/23 06:40:09;;;;;;;37.38;26.95;;;;;;;;;;4904469;29;20176;-90
2024/03/23 06:42:36;;;;;;;43.30;29.02;;;;;;;;;;4904694;29;20048;-93
2024/03/23 06:45:08;;;;;;;36.97;28.58;;;;;;;;;;4921252;29;20036;-89
2024/03/23 06:47:40;;;;;;;29.73;24.30;;;;;;;;;;4956742;28;20028;-91
2024/03/23 06:50:12;;;;;;;31.38;24.15;;;;;;;;;;4957064;28;20027;-89
2024/03/23 06:52:38;;;;;;;30.02;25.38;;;;;;;;;;4957470;29;20114;-94
2024/03/23 06:55:11;;;;;;;34.67;26.35;;;;;;;;;;4959878;28;20516;-93
2024/03/23 06:57:37;;;;;;;29.13;26.00;;;;;;;;;;4957494;29;20102;-95
2024/03/23 07:01:38;;;;;;;;;;;;;;;;;;;;;
2024/03/23 07:03:55;;;;;;;32.15;27.90;;;;;;;;;;4875476;29;20562;-95
2024/03/23 07:09:26;;;;;;;32.83;29.40;;;;;;;;;;4903637;29;20040;-92
2024/03/23 07:11:59;;;;;;;39.13;35.55;;;;;;;;;;5043069;23;20026;-92
2024/03/23 07:14:25;;;;;;;28.00;25.10;;;;;;;;;;4926056;29;20106;-91
2024/03/23 07:16:51;;;;;;;31.63;28.45;;;;;;;;;;4905910;29;20095;-94
2024/03/23 07:19:18;;;;;;;37.83;34.17;;;;;;;;;;4898278;29;20441;-95
2024/03/23 07:21:57;;;;;;;31.35;28.15;;;;;;;;;;4963054;29;20042;-95
2024/03/23 07:27:17;;;;;;;37.95;34.25;;;;;;;;;;2500234;23;20306;31
2024/03/23 07:29:43;;;;;;;40.42;36.67;;;;;;;;;;4917851;29;20075;-91
2024/03/23 07:32:11;;;;;;;35.08;31.75;;;;;;;;;;4923444;29;20042;-91
2024/03/23 07:34:50;;;;;;;33.10;30.08;;;;;;;;;;4938263;29;20035;-92
2024/03/23 07:37:16;;;;;;;28.10;25.27;;;;;;;;;;4924953;29;20062;-90
2024/03/23 07:39:42;;;;;;;34.17;30.23;;;;;;;;;;4904283;29;20082;-89
2024/03/23 07:42:08;;;;;;;31.25;28.13;;;;;;;;;;4915221;29;20028;-90
2024/03/23 07:44:34;;;;;;;29.85;26.63;;;;;;;;;;4954801;29;20047;-91
2024/03/23 07:47:01;;;;;;;33.90;30.55;;;;;;;;;;4961470;29;20489;-91
2024/03/23 07:49:27;;;;;;;29.92;26.83;;;;;;;;;;4943764;29;20038;-91
2024/03/23 07:52:00;;;;;;;38.40;34.83;;;;;;;;;;4944686;29;20048;-90
2024/03/23 07:54:26;;;;;;;34.00;30.52;;;;;;;;;;4939085;29;20024;-91
2024/03/23 07:56:55;;;;;;;33.88;30.63;;;;;;;;;;4922286;29;20027;-91
2024/03/23 07:59:21;;;;;;;31.80;27.92;;;;;;;;;;4921856;29;20035;-93
2024/03/23 08:01:49;;;;;;;32.28;28.88;;;;;;;;;;4941806;29;20051;-90
2024/03/23 08:04:15;;;;;;;33.95;30.58;;;;;;;;;;4942185;29;20571;-90
2024/03/23 08:06:43;;;;;;;31.10;27.92;;;;;;;;;;4945410;29;20045;-91
2024/03/23 08:09:32;;;;;;;38.50;35.00;;;;;;;;;;4939400;29;21491;-91
2024/03/23 08:11:58;;;;;;;34.28;30.90;;;;;;;;;;4946316;29;20028;-91
2024/03/23 08:14:24;;;;;;;30.98;28.00;;;;;;;;;;4944185;29;20028;-92
2024/03/23 08:16:51;;;;;;;33.08;29.83;;;;;;;;;;4942940;29;20432;-92
2024/03/23 08:19:19;;;;;;;39.50;36.00;;;;;;;;;;4960124;29;20054;-92
2024/03/23 08:21:45;;;;;;;47.95;43.88;;;;;;;;;;4942061;29;20043;-89
2024/03/23 08:24:11;;;;;;;42.85;39.30;;;;;;;;;;4941155;29;20492;-90
2024/03/23 08:26:37;;;;;;;39.13;35.67;;;;;;;;;;4941324;29;20361;-92
2024/03/23 08:29:04;;;;;;;35.22;31.55;;;;;;;;;;4940208;29;20030;-91
2024/03/23 08:31:30;;;;;;;34.95;31.77;;;;;;;;;;4939751;29;20051;-90
2024/03/23 08:33:56;;;;;;;35.00;31.77;;;;;;;;;;4939702;29;20028;-91
2024/03/23 08:36:23;;;;;;;40.22;36.78;;;;;;;;;;4940143;29;20043;-91
2024/03/23 08:38:53;;;;;;;39.03;35.50;;;;;;;;;;4925308;29;20027;-91
2024/03/23 08:41:19;;;;;;;57.88;53.25;;;;;;;;;;4920684;29;20035;-91
2024/03/23 08:43:48;;;;;;;62.47;57.17;;;;;;;;;;4922501;29;20114;-96
2024/03/23 08:49:21;;;;;;;65.88;60.63;;;;;;;;;;4902407;29;20083;-92
2024/03/23 08:51:47;;;;;;;55.78;51.40;;;;;;;;;;4941327;29;20046;-93
2024/03/23 08:54:14;;;;;;;52.67;48.53;;;;;;;;;;4966719;28;20038;-93
2024/03/23 08:56:56;;;;;;;57.25;52.45;;;;;;;;;;4943341;28;20039;-92
2024/03/23 08:59:38;;;;;;;55.22;50.92;;;;;;;;;;4920562;29;20489;-92
2024/03/23 09:02:04;;;;;;;62.17;57.30;;;;;;;;;;4920678;29;20070;-93
2024/03/23 09:05:12;;;;;;;50.20;46.35;;;;;;;;;;4921872;29;20028;-89
2024/03/23 09:08:10;;;;;;;34.67;31.83;;;;;;;;;;4937922;29;20481;-94
2024/03/23 09:10:43;;;;;;;31.25;28.73;;;;;;;;;;4921535;29;20477;-94
2024/03/23 09:13:09;;;;;;;29.40;26.95;;;;;;;;;;4931020;29;20037;-94
2024/03/23 09:18:36;;;;;;;26.60;24.50;;;;;;;;;;4929783;29;20484;-94
2024/03/23 09:21:04;;;;;;;24.00;21.92;;;;;;;;;;4939848;29;20130;-92
2024/03/23 09:23:30;;;;;;;21.02;19.23;;;;;;;;;;4942383;29;20042;-94
2024/03/23 09:25:56;;;;;;;21.65;19.75;;;;;;;;;;4944109;29;20030;-92
2024/03/23 09:28:23;;;;;;;23.52;21.45;;;;;;;;;;4939380;29;20039;-93
2024/03/23 09:30:49;;;;;;;22.63;20.73;;;;;;;;;;4941270;29;20054;-92
2024/03/23 09:33:24;;;;;;;21.27;19.27;;;;;;;;;;4941091;29;20155;-91
2024/03/23 09:35:50;;;;;;;23.80;21.67;;;;;;;;;;4905574;29;20071;-94
2024/03/23 09:38:17;;;;;;;22.33;20.42;;;;;;;;;;4904538;29;20032;-93
2024/03/23 09:40:46;;;;;;;21.48;19.25;;;;;;;;;;4908619;29;20031;-92
2024/03/23 09:43:13;;;;;;;24.98;22.98;;;;;;;;;;4928952;29;20039;-92
2024/03/23 09:45:40;;;;;;;23.35;21.45;;;;;;;;;;4922549;29;20028;-94
2024/03/23 09:48:07;;;;;;;26.80;24.52;;;;;;;;;;4922174;29;20063;-93
2024/03/23 09:50:33;;;;;;;28.70;26.38;;;;;;;;;;4923622;29;20031;-94
2024/03/23 09:53:00;;;;;;;31.67;29.17;;;;;;;;;;4925234;29;20027;-92
2024/03/23 09:55:26;;;;;;;32.42;29.98;;;;;;;;;;4931718;29;20485;-92
2024/03/23 09:57:52;;;;;;;30.52;28.17;;;;;;;;;;4942639;29;20118;-93
2024/03/23 10:00:21;;;;;;;30.95;28.65;;;;;;;;;;4926676;29;20035;-93
2024/03/23 10:02:47;;;;;;;34.20;31.63;;;;;;;;;;4941433;29;20171;-93
2024/03/23 10:05:23;;;;;;;33.85;31.15;;;;;;;;;;4945495;29;20399;-91
2024/03/23 10:07:52;;;;;;;37.55;34.80;;;;;;;;;;4943668;29;20445;-91
2024/03/23 10:10:19;;;;;;;38.60;35.50;;;;;;;;;;4943730;29;20057;-90
2024/03/23 10:12:50;;;;;;;39.55;36.55;;;;;;;;;;4945326;29;20031;-91
2024/03/23 10:15:20;;;;;;;43.67;39.92;;;;;;;;;;4961161;29;20043;-90
2024/03/23 10:17:46;;;;;;;44.72;41.28;;;;;;;;;;4944447;29;20094;-91
2024/03/23 10:20:24;;;;;;;46.03;42.53;;;;;;;;;;4944503;29;20031;-91
2024/03/23 10:22:51;;;;;;;48.67;45.17;;;;;;;;;;4946531;29;20043;-89
2024/03/23 10:25:18;;;;;;;40.95;37.70;;;;;;;;;;4948196;29;20027;-90
2024/03/23 10:27:44;;;;;;;40.55;37.50;;;;;;;;;;4931057;29;20038;-90
2024/03/23 10:30:12;;;;;;;39.05;35.97;;;;;;;;;;4929816;29;20043;-90
2024/03/23 10:32:41;;;;;;;44.10;40.45;;;;;;;;;;4931444;29;20028;-90
2024/03/23 10:35:23;;;;;;;40.38;37.22;;;;;;;;;;4940656;28;20054;-92
2024/03/23 10:37:53;;;;;;;49.95;46.22;;;;;;;;;;4945241;29;20038;-91
2024/03/23 10:40:27;;;;;;;41.22;37.92;;;;;;;;;;4942956;29;20150;-91
2024/03/23 10:43:00;;;;;;;43.72;40.22;;;;;;;;;;4945199;29;20022;-89
2024/03/23 10:45:26;;;;;;;47.67;43.57;;;;;;;;;;4943595;29;20194;-90
2024/03/23 10:47:58;;;;;;;42.50;38.90;;;;;;;;;;4936738;29;20271;-88
2024/03/23 10:50:24;;;;;;;45.35;41.63;;;;;;;;;;4937396;29;20497;-89
2024/03/23 10:53:11;;;;;;;45.08;41.35;;;;;;;;;;4941796;29;20031;-90
2024/03/23 10:56:07;;;;;;;40.70;37.28;;;;;;;;;;4945811;29;20030;-91
2024/03/23 11:01:58;;;;;;;35.17;32.22;;;;;;;;;;4864098;29;20561;-92
2024/03/23 11:04:31;;;;;;;38.72;35.28;;;;;;;;;;4865204;29;20048;-91
2024/03/23 11:06:57;;;;;;;47.65;43.58;;;;;;;;;;4920100;29;20482;-91
2024/03/23 11:09:36;;;;;;;41.67;38.38;;;;;;;;;;4921159;29;20040;-93
2024/03/23 11:12:20;;;;;;;45.30;41.60;;;;;;;;;;4922490;29;20145;-93
2024/03/23 11:14:49;;;;;;;36.70;33.28;;;;;;;;;;4920146;29;20032;-94
2024/03/23 11:17:18;;;;;;;43.33;39.70;;;;;;;;;;4906234;29;20028;-96
2024/03/23 11:19:45;;;;;;;40.50;37.20;;;;;;;;;;4931888;29;20036;-94
2024/03/23 11:22:52;;;;;;;44.85;41.45;;;;;;;;;;4934532;29;20036;-95
2024/03/23 11:26:22;;;;;;;41.97;38.72;;;;;;;;;;4807458;29;20043;-95
2024/03/23 11:28:48;;;;;;;43.72;40.22;;;;;;;;;;4795453;29;20046;-94
2024/03/23 11:31:25;;;;;;;46.58;42.90;;;;;;;;;;4862773;29;20049;-93
2024/03/23 11:34:13;;;;;;;41.65;38.30;;;;;;;;;;4865614;29;20045;-95
2024/03/23 11:36:39;;;;;;;45.30;41.90;;;;;;;;;;4862256;29;20041;-94
2024/03/23 11:39:25;;;;;;;40.72;37.50;;;;;;;;;;4862357;29;20120;-94
2024/03/23 11:41:53;;;;;;;41.35;38.40;;;;;;;;;;4873445;29;20056;-93
2024/03/23 11:44:28;;;;;;;44.53;41.05;;;;;;;;;;4900488;29;20024;-91
2024/03/23 11:46:54;;;;;;;41.28;38.17;;;;;;;;;;4899791;29;20103;-92
2024/03/23 11:49:53;;;;;;;35.10;32.25;;;;;;;;;;4892002;29;20065;-92
2024/03/23 11:52:19;;;;;;;42.10;38.83;;;;;;;;;;4879862;29;20029;-90
2024/03/23 11:54:49;;;;;;;35.10;32.10;;;;;;;;;;4897189;29;20032;-90
2024/03/23 11:57:15;;;;;;;44.25;40.75;;;;;;;;;;4898269;29;20068;-91
2024/03/23 11:59:41;;;;;;;40.97;37.58;;;;;;;;;;4898270;29;20061;-92
2024/03/23 12:02:10;;;;;;;41.80;38.50;;;;;;;;;;4898093;29;20040;-91
2024/03/23 12:04:45;;;;;;;39.65;36.58;;;;;;;;;;4898142;29;20095;-92
2024/03/23 12:07:22;;;;;;;45.25;41.70;;;;;;;;;;4898154;29;20055;-89
2024/03/23 12:10:09;;;;;;;44.78;41.45;;;;;;;;;;4899135;29;20032;-91
2024/03/23 12:12:38;;;;;;;37.17;34.28;;;;;;;;;;4897784;29;20043;-88
2024/03/23 12:15:05;;;;;;;38.08;35.05;;;;;;;;;;4906183;29;20040;-89
2024/03/23 12:17:53;;;;;;;42.78;39.45;;;;;;;;;;4950910;28;20007;-89
2024/03/23 12:20:19;;;;;;;43.45;39.97;;;;;;;;;;4946750;29;20035;-88
2024/03/23 12:22:46;;;;;;;31.20;28.70;;;;;;;;;;4959999;29;20054;-91
2024/03/23 12:25:16;;;;;;;32.15;29.65;;;;;;;;;;4939755;29;20066;-91
2024/03/23 12:30:58;;;;;;;37.53;34.22;;;;;;;;;;4952185;28;20050;-90
2024/03/23 12:36:46;;;;;;;34.20;31.48;;;;;;;;;;4934768;29;20087;-92
2024/03/23 12:39:41;;;;;;;32.28;29.65;;;;;;;;;;4970602;23;20048;-93
2024/03/23 12:42:29;;;;;;;32.15;29.65;;;;;;;;;;4958858;28;20062;-91
2024/03/23 12:47:59;;;;;;;51.20;46.53;;;;;;;;;;4957579;29;20034;-94
2024/03/23 12:50:25;;;;;;;38.90;36.00;;;;;;;;;;4940331;29;20023;-94
2024/03/23 12:52:51;;;;;;;31.30;28.70;;;;;;;;;;4939266;29;20476;-94
2024/03/23 12:55:18;;;;;;;43.42;40.05;;;;;;;;;;4939790;29;20484;-93
2024/03/23 12:57:47;;;;;;;36.03;33.22;;;;;;;;;;4939284;29;20494;-93
2024/03/23 13:00:16;;;;;;;36.63;33.83;;;;;;;;;;4939570;29;20027;-92
2024/03/23 13:02:46;;;;;;;37.25;34.40;;;;;;;;;;4938927;29;20043;-92
2024/03/23 13:05:12;;;;;;;40.78;37.13;;;;;;;;;;4939933;29;20023;-94
2024/03/23 13:07:38;;;;;;;38.78;35.95;;;;;;;;;;4939384;29;20039;-90
2024/03/23 13:10:05;;;;;;;40.72;37.25;;;;;;;;;;4940623;29;20384;-91
2024/03/23 13:12:32;;;;;;;59.78;52.78;;;;;;;;;;4940243;29;20035;-92
2024/03/23 13:14:59;;;;;;;38.53;35.47;;;;;;;;;;4940924;29;20042;-90
2024/03/23 13:17:29;;;;;;;38.30;35.03;;;;;;;;;;4939598;29;20481;-92
2024/03/23 13:19:56;;;;;;;44.55;41.20;;;;;;;;;;4939314;29;20031;-91
2024/03/23 13:22:22;;;;;;;33.58;31.15;;;;;;;;;;4939239;29;20551;-94
2024/03/23 13:24:54;;;;;;;38.80;36.00;;;;;;;;;;4957351;28;20500;-94
2024/03/23 13:27:21;;;;;;;45.75;42.35;;;;;;;;;;4930396;29;20043;-94
2024/03/23 13:29:50;;;;;;;40.97;38.05;;;;;;;;;;4928888;29;20028;-94
2024/03/23 13:38:04;;;;;;;39.00;36.05;;;;;;;;;;4980755;28;20029;-93
2024/03/23 13:40:31;;;;;;;35.45;32.75;;;;;;;;;;5431557;23;20071;-94
2024/03/23 13:43:03;;;;;;;35.80;33.08;;;;;;;;;;4969912;28;20038;-92
2024/03/23 13:45:32;;;;;;;39.38;36.50;;;;;;;;;;4982504;28;20034;-95
2024/03/23 13:54:08;;;;;;;62.30;57.53;;;;;;;;;;5421907;23;20022;31
2024/03/23 14:01:40;;;;;;;30.05;27.02;;;;;;;;;;4989112;28;20030;-96
2024/03/23 14:04:06;;;;;;;71.60;65.22;;;;;;;;;;4983004;28;20044;-95
2024/03/23 14:06:35;;;;;;;40.50;36.35;;;;;;;;;;4975044;28;20007;-94
2024/03/23 14:14:24;;;;;;;55.70;50.42;;;;;;;;;;5082608;23;20050;-94
2024/03/23 14:19:35;;;;;;;118.78;106.00;;;;;;;;;;5410319;23;20063;-94
2024/03/23 14:24:46;;;;;;;45.53;41.63;;;;;;;;;;5188624;23;20046;-95
2024/03/23 14:27:12;;;;;;;36.38;33.10;;;;;;;;;;5005705;23;20121;-94
2024/03/23 14:29:38;;;;;;;52.90;47.45;;;;;;;;;;4967170;28;20022;-95
2024/03/23 14:32:06;;;;;;;102.05;83.40;;;;;;;;;;5036175;23;20047;-95
2024/03/23 14:34:36;;;;;;;777.53;585.80;;;;;;;;;;4965218;28;20117;-96
2024/03/23 14:37:10;;;;;;;378.90;297.13;;;;;;;;;;4972125;28;20038;-95
2024/03/23 14:39:59;;;;;;;33.65;30.13;;;;;;;;;;4971647;28;20126;-96
2024/03/23 14:42:25;;;;;;;31.80;28.75;;;;;;;;;;5019173;23;20439;-95
2024/03/23 14:44:53;;;;;;;24.45;21.45;;;;;;;;;;4967410;28;20391;-94
2024/03/23 14:47:28;;;;;;;11.30;10.20;;;;;;;;;;4982508;28;20054;-95
2024/03/23 14:49:55;;;;;;;9.55;8.85;;;;;;;;;;4985845;28;20030;-93
2024/03/23 14:52:21;;;;;;;12.05;10.88;;;;;;;;;;5074592;23;20124;-96
2024/03/23 14:54:47;;;;;;;6.32;5.82;;;;;;;;;;4969104;28;20031;-95
2024/03/23 14:57:14;;;;;;;9.25;8.57;;;;;;;;;;4968400;28;20050;-94
2024/03/23 14:59:44;;;;;;;7.60;7.00;;;;;;;;;;4969325;28;20030;-96
2024/03/23 15:04:45;;;;;;;9.70;9.00;;;;;;;;;;4964771;29;20043;-95
2024/03/23 15:13:01;;;;;;;11.45;10.75;;;;;;;;;;5002228;23;20100;-94
2024/03/23 15:15:35;;;;;;;13.52;12.55;;;;;;;;;;4973140;28;20049;-94
2024/03/23 15:18:08;;;;;;;17.02;16.00;;;;;;;;;;4985467;28;20073;-95
2024/03/23 15:20:35;;;;;;;11.48;10.77;;;;;;;;;;4987510;28;20546;-93
2024/03/23 15:25:37;;;;;;;33.53;30.20;;;;;;;;;;5116139;23;20066;-94
2024/03/23 15:30:40;;;;;;;11.75;10.93;;;;;;;;;;4990294;23;20058;-95
2024/03/23 15:33:09;;;;;;;12.52;11.38;;;;;;;;;;4968521;28;20082;-95
2024/03/23 15:35:36;;;;;;;10.90;10.15;;;;;;;;;;4990024;28;20038;-95
2024/03/23 15:38:12;;;;;;;;;;;;;;;;;;;;;
2024/03/23 15:41:03;;;;;;;11.77;10.95;;;;;;;;;;4951775;28;20122;-96
2024/03/23 15:43:33;;;;;;;10.57;8.43;;;;;;;;;;4987944;28;20113;-95
2024/03/23 15:51:15;;;;;;;11.48;10.45;;;;;;;;;;4947910;29;20107;-95
2024/03/23 15:53:57;;;;;;;10.10;6.80;;;;;;;;;;4970012;23;20078;-94
2024/03/23 15:56:30;;;;;;;7.80;7.20;;;;;;;;;;4969677;28;20027;-93